Time;durP1;ratioP1;P1;durP2;ratioP2;P2;SDS_P1;SDS_P2;PMS_P1;PMS_P2;Temp;Humidity;BMP_temperature;BMP_pressure;BME280_temperature;BME280_humidity;BME280_pressure;Samples;Min_cycle;Max_cycle;Signal;HPM_P1;HPM_P2
2023/03/29 00:02:15;;;;;;;0.60;0.60;;;;;;;;;;5003274;28;89237;-51
2023/03/29 00:04:44;;;;;;;1.03;0.67;;;;;;;;;;5004014;28;86523;-51
2023/03/29 00:07:13;;;;;;;0.60;0.60;;;;;;;;;;5004200;28;87062;-51
2023/03/29 00:09:41;;;;;;;0.73;0.73;;;;;;;;;;5004467;28;87043;-52
2023/03/29 00:12:10;;;;;;;0.50;0.50;;;;;;;;;;5003359;28;89102;-52
2023/03/29 00:14:40;;;;;;;0.40;0.40;;;;;;;;;;5003782;28;89803;-52
2023/03/29 00:17:08;;;;;;;0.80;0.60;;;;;;;;;;5003383;28;87181;-51
2023/03/29 00:19:36;;;;;;;0.60;0.60;;;;;;;;;;5003642;28;87104;-51
2023/03/29 00:22:05;;;;;;;0.47;0.40;;;;;;;;;;5003187;28;89146;-51
2023/03/29 00:24:34;;;;;;;0.60;0.60;;;;;;;;;;4999730;28;89116;-51
2023/03/29 00:27:02;;;;;;;1.03;0.93;;;;;;;;;;4991302;28;87098;-51
2023/03/29 00:29:31;;;;;;;0.63;0.63;;;;;;;;;;4999646;28;86302;-51
2023/03/29 00:32:00;;;;;;;0.40;0.40;;;;;;;;;;5002647;28;87974;-51
2023/03/29 00:34:30;;;;;;;0.70;0.40;;;;;;;;;;5001811;28;88865;-51
2023/03/29 00:36:58;;;;;;;0.43;0.43;;;;;;;;;;5002436;28;87836;-51
2023/03/29 00:39:27;;;;;;;0.93;0.87;;;;;;;;;;5001670;28;87197;-51
2023/03/29 00:41:55;;;;;;;0.67;0.50;;;;;;;;;;5003356;28;89085;-51
2023/03/29 00:44:42;;;;;;;0.40;0.40;;;;;;;;;;4987793;28;87611;-51
2023/03/29 00:47:12;;;;;;;1.57;0.60;;;;;;;;;;4983546;28;87043;-51
2023/03/29 00:49:40;;;;;;;0.53;0.53;;;;;;;;;;4983705;28;87034;-51
2023/03/29 00:52:08;;;;;;;0.70;0.37;;;;;;;;;;4990429;28;89206;-51
2023/03/29 00:54:37;;;;;;;0.83;0.53;;;;;;;;;;4999910;28;88124;-51
2023/03/29 00:57:06;;;;;;;1.23;0.67;;;;;;;;;;5001636;28;87043;-51
2023/03/29 00:59:35;;;;;;;0.77;0.67;;;;;;;;;;5003299;28;87041;-51
2023/03/29 01:02:04;;;;;;;1.73;0.70;;;;;;;;;;5000696;28;89089;-51
2023/03/29 01:04:35;;;;;;;0.57;0.57;;;;;;;;;;4983110;28;88695;-51
2023/03/29 01:07:03;;;;;;;1.13;0.73;;;;;;;;;;5003583;28;86924;-51
2023/03/29 01:09:32;;;;;;;0.93;0.67;;;;;;;;;;5001183;28;86940;-52
2023/03/29 01:12:02;;;;;;;0.40;0.40;;;;;;;;;;5002417;28;88076;-51
2023/03/29 01:14:30;;;;;;;0.60;0.60;;;;;;;;;;5002865;28;88884;-51
2023/03/29 01:16:58;;;;;;;0.83;0.67;;;;;;;;;;5002248;28;86950;-51
2023/03/29 01:19:28;;;;;;;1.43;0.93;;;;;;;;;;5001970;28;86369;-51
2023/03/29 01:22:02;;;;;;;1.57;0.70;;;;;;;;;;5000985;28;89304;-51
2023/03/29 01:24:34;;;;;;;1.20;0.73;;;;;;;;;;4997898;28;87869;-51
2023/03/29 01:27:04;;;;;;;0.30;0.30;;;;;;;;;;4998627;28;87975;-51
2023/03/29 01:29:34;;;;;;;0.83;0.83;;;;;;;;;;4989725;28;87155;-51
2023/03/29 01:32:04;;;;;;;0.77;0.43;;;;;;;;;;4997615;28;89054;-51
2023/03/29 01:34:33;;;;;;;0.53;0.40;;;;;;;;;;4983677;28;88817;-51
2023/03/29 01:37:03;;;;;;;1.60;0.83;;;;;;;;;;4994286;28;87072;-52
2023/03/29 01:39:33;;;;;;;1.20;0.60;;;;;;;;;;4981284;28;87235;-51
2023/03/29 01:42:08;;;;;;;0.70;0.70;;;;;;;;;;4991572;28;87102;-51
2023/03/29 01:44:40;;;;;;;0.50;0.50;;;;;;;;;;5002621;28;87884;-51
2023/03/29 01:47:09;;;;;;;0.67;0.67;;;;;;;;;;4983663;28;86962;-52
2023/03/29 01:49:38;;;;;;;1.70;0.87;;;;;;;;;;4982523;28;87047;-51
2023/03/29 01:52:07;;;;;;;0.87;0.87;;;;;;;;;;4981255;28;90340;-52
2023/03/29 01:54:37;;;;;;;0.33;0.33;;;;;;;;;;4987733;28;87000;-51
2023/03/29 01:57:06;;;;;;;0.50;0.50;;;;;;;;;;4981341;28;87092;-51
2023/03/29 01:59:34;;;;;;;1.23;0.50;;;;;;;;;;4990803;28;87080;-51
2023/03/29 02:02:05;;;;;;;0.50;0.43;;;;;;;;;;4980389;28;88185;-51
2023/03/29 02:04:33;;;;;;;0.30;0.30;;;;;;;;;;4981119;28;87861;-51
2023/03/29 02:07:02;;;;;;;0.60;0.60;;;;;;;;;;4981128;28;87482;-51
2023/03/29 02:09:30;;;;;;;0.40;0.40;;;;;;;;;;4982905;28;86318;-51
2023/03/29 02:11:59;;;;;;;0.40;0.40;;;;;;;;;;4980952;28;89184;-51
2023/03/29 02:14:28;;;;;;;0.73;0.43;;;;;;;;;;4980181;28;88811;-51
2023/03/29 02:16:56;;;;;;;3.40;0.60;;;;;;;;;;4983480;28;88042;-51
2023/03/29 02:19:26;;;;;;;0.60;0.60;;;;;;;;;;4996925;28;86941;-51
2023/03/29 02:21:56;;;;;;;0.73;0.60;;;;;;;;;;4980684;28;88311;-51
2023/03/29 02:24:25;;;;;;;0.60;0.40;;;;;;;;;;4982016;28;87582;-51
2023/03/29 02:26:53;;;;;;;0.30;0.30;;;;;;;;;;4981300;28;87074;-51
2023/03/29 02:29:21;;;;;;;0.50;0.40;;;;;;;;;;4981771;28;86952;-51
2023/03/29 02:31:50;;;;;;;0.50;0.40;;;;;;;;;;4980665;28;89565;-51
2023/03/29 02:34:20;;;;;;;0.30;0.30;;;;;;;;;;4981266;28;89102;-51
2023/03/29 02:36:50;;;;;;;0.40;0.40;;;;;;;;;;4981419;28;87591;-51
2023/03/29 02:39:18;;;;;;;1.30;0.50;;;;;;;;;;4979706;28;86941;-51
2023/03/29 02:41:47;;;;;;;0.40;0.40;;;;;;;;;;4964459;28;89809;-51
2023/03/29 02:44:15;;;;;;;0.30;0.30;;;;;;;;;;4967489;28;89859;-51
2023/03/29 02:46:44;;;;;;;0.50;0.50;;;;;;;;;;4966360;28;87091;-51
2023/03/29 02:49:12;;;;;;;0.40;0.40;;;;;;;;;;4967415;28;87205;-51
2023/03/29 02:51:40;;;;;;;0.40;0.40;;;;;;;;;;4967665;28;88948;-52
2023/03/29 02:54:12;;;;;;;1.63;0.50;;;;;;;;;;4964591;28;89279;-51
2023/03/29 02:56:44;;;;;;;1.03;0.50;;;;;;;;;;4971493;28;87045;-51
2023/03/29 02:59:12;;;;;;;1.03;0.60;;;;;;;;;;4981786;28;86374;-51
2023/03/29 03:01:42;;;;;;;0.43;0.43;;;;;;;;;;4980302;28;88315;-51
2023/03/29 03:04:11;;;;;;;0.40;0.40;;;;;;;;;;4962436;28;88709;-51
2023/03/29 03:06:39;;;;;;;1.03;0.30;;;;;;;;;;4975478;28;88608;-51
2023/03/29 03:09:08;;;;;;;0.40;0.40;;;;;;;;;;4980623;28;87018;-51
2023/03/29 03:11:38;;;;;;;0.40;0.40;;;;;;;;;;4980401;28;88347;-51
2023/03/29 03:14:06;;;;;;;1.27;1.00;;;;;;;;;;4981129;28;86985;-51
2023/03/29 03:16:35;;;;;;;0.67;0.50;;;;;;;;;;4981170;28;87069;-51
2023/03/29 03:19:04;;;;;;;2.40;0.50;;;;;;;;;;4982368;28;88477;-51
2023/03/29 03:21:32;;;;;;;0.40;0.40;;;;;;;;;;4983934;28;89242;-51
2023/03/29 03:24:01;;;;;;;0.50;0.50;;;;;;;;;;4971576;28;87750;-52
2023/03/29 03:26:29;;;;;;;1.40;0.43;;;;;;;;;;4983667;28;87027;-51
2023/03/29 03:28:59;;;;;;;0.40;0.40;;;;;;;;;;4984296;28;86779;-51
2023/03/29 03:31:28;;;;;;;0.70;0.40;;;;;;;;;;4983558;28;90225;-51
2023/03/29 03:33:56;;;;;;;0.60;0.60;;;;;;;;;;4973271;28;89655;-51
2023/03/29 03:36:27;;;;;;;0.47;0.47;;;;;;;;;;4982921;28;86979;-51
2023/03/29 03:38:56;;;;;;;0.87;0.50;;;;;;;;;;4978789;28;87115;-51
2023/03/29 03:41:25;;;;;;;0.67;0.67;;;;;;;;;;5002875;28;88139;-51
2023/03/29 03:43:54;;;;;;;0.50;0.50;;;;;;;;;;5003771;28;88890;-51
2023/03/29 03:46:23;;;;;;;0.80;0.80;;;;;;;;;;5003955;28;86894;-51
2023/03/29 03:48:53;;;;;;;0.30;0.30;;;;;;;;;;5004036;28;86345;-52
2023/03/29 03:51:21;;;;;;;0.60;0.60;;;;;;;;;;5003034;28;88995;-51
2023/03/29 03:53:49;;;;;;;0.37;0.30;;;;;;;;;;5004464;28;86995;-51
2023/03/29 03:56:19;;;;;;;0.60;0.60;;;;;;;;;;5003644;28;89050;-51
2023/03/29 03:58:47;;;;;;;1.20;0.70;;;;;;;;;;5004261;28;87029;-51
2023/03/29 04:01:15;;;;;;;0.53;0.53;;;;;;;;;;5003350;28;87816;-51
2023/03/29 04:03:45;;;;;;;0.70;0.70;;;;;;;;;;5003305;28;87517;-51
2023/03/29 04:06:13;;;;;;;0.60;0.60;;;;;;;;;;5003236;28;86987;-52
2023/03/29 04:08:42;;;;;;;0.60;0.60;;;;;;;;;;5003681;28;86995;-51
2023/03/29 04:11:10;;;;;;;0.83;0.40;;;;;;;;;;5000120;28;89171;-51
2023/03/29 04:13:38;;;;;;;0.40;0.40;;;;;;;;;;4990069;28;88939;-52
2023/03/29 04:16:07;;;;;;;1.37;0.60;;;;;;;;;;5003287;28;87172;-51
2023/03/29 04:18:36;;;;;;;0.53;0.40;;;;;;;;;;5004240;28;87111;-51
2023/03/29 04:21:06;;;;;;;0.97;0.80;;;;;;;;;;5002990;28;90097;-51
2023/03/29 04:23:34;;;;;;;0.93;0.60;;;;;;;;;;5003398;28;89904;-51
2023/03/29 04:26:02;;;;;;;0.60;0.60;;;;;;;;;;5002963;28;87026;-51
2023/03/29 04:28:31;;;;;;;0.90;0.70;;;;;;;;;;5001920;28;87106;-51
2023/03/29 04:30:59;;;;;;;2.17;0.50;;;;;;;;;;5000792;28;88023;-51
2023/03/29 04:33:28;;;;;;;0.40;0.40;;;;;;;;;;5002684;28;87861;-51
2023/03/29 04:35:57;;;;;;;1.43;0.70;;;;;;;;;;4996099;28;87125;-52
2023/03/29 04:38:26;;;;;;;1.03;0.80;;;;;;;;;;4983945;28;89455;-51
2023/03/29 04:40:55;;;;;;;3.00;0.93;;;;;;;;;;5001698;28;88403;-51
2023/03/29 04:43:23;;;;;;;0.97;0.70;;;;;;;;;;5000939;28;87926;-51
2023/03/29 04:45:51;;;;;;;2.10;1.10;;;;;;;;;;4995859;28;87912;-51
2023/03/29 04:48:21;;;;;;;1.33;0.87;;;;;;;;;;5002603;28;87440;-52
2023/03/29 04:50:49;;;;;;;2.03;0.90;;;;;;;;;;4990482;28;88730;-52
2023/03/29 04:53:17;;;;;;;0.80;0.80;;;;;;;;;;5002295;28;87733;-52
2023/03/29 04:55:48;;;;;;;1.50;1.07;;;;;;;;;;5000371;28;89392;-51
2023/03/29 04:58:16;;;;;;;1.03;0.93;;;;;;;;;;5001229;28;86922;-51
2023/03/29 05:00:47;;;;;;;1.10;1.00;;;;;;;;;;4994471;28;88101;-51
2023/03/29 05:03:15;;;;;;;0.93;0.90;;;;;;;;;;5000807;28;88993;-51
2023/03/29 05:05:43;;;;;;;1.83;1.23;;;;;;;;;;5002830;28;87029;-51
2023/03/29 05:08:12;;;;;;;3.80;1.10;;;;;;;;;;5001830;28;87126;-51
2023/03/29 05:10:42;;;;;;;2.77;1.53;;;;;;;;;;5002378;28;90015;-51
2023/03/29 05:13:11;;;;;;;1.23;1.03;;;;;;;;;;5001494;28;89863;-51
2023/03/29 05:15:40;;;;;;;2.17;1.43;;;;;;;;;;5001161;28;87160;-51
2023/03/29 05:18:09;;;;;;;2.30;1.23;;;;;;;;;;5001111;28;87018;-51
2023/03/29 05:20:39;;;;;;;1.00;1.00;;;;;;;;;;4998212;28;88077;-50
2023/03/29 05:23:07;;;;;;;1.43;1.33;;;;;;;;;;5001324;28;88590;-50
2023/03/29 05:25:35;;;;;;;1.50;1.00;;;;;;;;;;4999937;28;86887;-51
2023/03/29 05:28:04;;;;;;;1.10;0.90;;;;;;;;;;5002475;28;86409;-51
2023/03/29 05:30:34;;;;;;;0.80;0.80;;;;;;;;;;5001843;28;89237;-50
2023/03/29 05:33:04;;;;;;;1.90;1.03;;;;;;;;;;5002035;28;88047;-51
2023/03/29 05:35:32;;;;;;;1.53;1.20;;;;;;;;;;5000925;28;87967;-51
2023/03/29 05:38:01;;;;;;;2.73;1.20;;;;;;;;;;5001630;28;87111;-51
2023/03/29 05:40:30;;;;;;;1.53;0.90;;;;;;;;;;5001602;28;87951;-51
2023/03/29 05:43:01;;;;;;;1.00;0.80;;;;;;;;;;5001185;28;87856;-51
2023/03/29 05:45:31;;;;;;;0.87;0.87;;;;;;;;;;5001929;28;87087;-51
2023/03/29 05:48:02;;;;;;;2.40;1.20;;;;;;;;;;5001505;28;87113;-53
2023/03/29 05:50:31;;;;;;;3.07;1.00;;;;;;;;;;5001511;28;89171;-53
2023/03/29 05:52:59;;;;;;;1.80;1.00;;;;;;;;;;5001878;28;87954;-51
2023/03/29 05:55:27;;;;;;;1.80;1.07;;;;;;;;;;5001959;28;87177;-51
2023/03/29 05:57:56;;;;;;;0.50;0.50;;;;;;;;;;5001655;28;86872;-51
2023/03/29 06:00:24;;;;;;;1.00;0.80;;;;;;;;;;4991527;28;90473;-51
2023/03/29 06:02:54;;;;;;;1.00;0.77;;;;;;;;;;4999898;28;89733;-52
2023/03/29 06:05:35;;;;;;;0.80;0.80;;;;;;;;;;5000850;28;87100;-51
2023/03/29 06:08:04;;;;;;;1.33;0.90;;;;;;;;;;5001802;28;87170;-51
2023/03/29 06:10:32;;;;;;;1.07;0.70;;;;;;;;;;5001679;28;89118;-51
2023/03/29 06:13:00;;;;;;;0.60;0.60;;;;;;;;;;5001539;28;88937;-51
2023/03/29 06:15:29;;;;;;;0.90;0.90;;;;;;;;;;5001935;28;86955;-52
2023/03/29 06:17:58;;;;;;;1.20;1.10;;;;;;;;;;5001415;28;86356;-51
2023/03/29 06:20:26;;;;;;;1.03;0.70;;;;;;;;;;5001645;28;88740;-52
2023/03/29 06:22:56;;;;;;;2.37;0.97;;;;;;;;;;4990359;28;87914;-52
2023/03/29 06:25:24;;;;;;;0.80;0.80;;;;;;;;;;4993694;28;88067;-51
2023/03/29 06:27:53;;;;;;;0.93;0.70;;;;;;;;;;5001046;28;87126;-51
2023/03/29 06:30:21;;;;;;;0.97;0.63;;;;;;;;;;5001351;28;87948;-51
2023/03/29 06:32:49;;;;;;;2.03;1.20;;;;;;;;;;4996174;28;88953;-51
2023/03/29 06:35:18;;;;;;;0.70;0.67;;;;;;;;;;5001345;28;86795;-51
2023/03/29 06:37:49;;;;;;;1.67;0.77;;;;;;;;;;4997757;28;87067;-51
2023/03/29 06:40:20;;;;;;;0.40;0.40;;;;;;;;;;5000692;28;89214;-51
2023/03/29 06:42:49;;;;;;;0.50;0.50;;;;;;;;;;5001649;28;86461;-51
2023/03/29 06:45:19;;;;;;;0.70;0.70;;;;;;;;;;4977207;28;87043;-52
2023/03/29 06:47:51;;;;;;;0.80;0.70;;;;;;;;;;4990266;28;87228;-52
2023/03/29 06:50:19;;;;;;;0.63;0.63;;;;;;;;;;5000448;28;89019;-52
2023/03/29 06:52:48;;;;;;;2.30;0.97;;;;;;;;;;5004035;28;88887;-49
2023/03/29 06:55:17;;;;;;;2.93;0.90;;;;;;;;;;5019656;28;86974;-51
2023/03/29 06:57:46;;;;;;;0.60;0.53;;;;;;;;;;5011042;28;87054;-51
2023/03/29 07:00:17;;;;;;;1.33;0.83;;;;;;;;;;5007640;28;87964;-52
2023/03/29 07:02:46;;;;;;;1.07;0.70;;;;;;;;;;5007191;28;87975;-52
2023/03/29 07:05:14;;;;;;;0.40;0.40;;;;;;;;;;5007280;28;86838;-51
2023/03/29 07:07:55;;;;;;;1.93;0.60;;;;;;;;;;5007745;28;86315;-52
2023/03/29 07:10:24;;;;;;;0.77;0.60;;;;;;;;;;5007948;28;89239;-51
2023/03/29 07:12:54;;;;;;;1.23;0.93;;;;;;;;;;5007826;28;88829;-51
2023/03/29 07:15:23;;;;;;;0.87;0.50;;;;;;;;;;5006052;28;88040;-51
2023/03/29 07:17:51;;;;;;;0.97;0.70;;;;;;;;;;5007695;28;87101;-50
2023/03/29 07:20:21;;;;;;;1.20;0.63;;;;;;;;;;5007584;28;88315;-49
2023/03/29 07:22:49;;;;;;;0.60;0.60;;;;;;;;;;5008180;28;89035;-49
2023/03/29 07:25:18;;;;;;;0.77;0.67;;;;;;;;;;5006701;28;87037;-49
2023/03/29 07:27:46;;;;;;;0.60;0.60;;;;;;;;;;5007014;28;87602;-48
2023/03/29 07:30:17;;;;;;;1.90;0.80;;;;;;;;;;5006812;28;88150;-49
2023/03/29 07:32:45;;;;;;;0.53;0.50;;;;;;;;;;5007721;28;88830;-49
2023/03/29 07:35:16;;;;;;;2.83;0.80;;;;;;;;;;5006600;28;87026;-49
2023/03/29 07:37:45;;;;;;;2.47;0.73;;;;;;;;;;5006054;28;87104;-49
2023/03/29 07:40:15;;;;;;;1.00;0.77;;;;;;;;;;5007439;28;89103;-49
2023/03/29 07:42:43;;;;;;;3.13;0.70;;;;;;;;;;5007536;28;89748;-49
2023/03/29 07:45:13;;;;;;;1.50;0.77;;;;;;;;;;5003821;28;87277;-49
2023/03/29 07:47:42;;;;;;;3.20;0.90;;;;;;;;;;5003731;28;87151;-49
2023/03/29 07:50:12;;;;;;;1.00;1.00;;;;;;;;;;5004219;28;88329;-51
2023/03/29 07:52:40;;;;;;;1.07;0.90;;;;;;;;;;5006568;28;87703;-49
2023/03/29 07:55:09;;;;;;;3.77;0.90;;;;;;;;;;5006221;28;87273;-51
2023/03/29 07:57:37;;;;;;;1.20;1.10;;;;;;;;;;5000477;28;86300;-51
2023/03/29 08:00:14;;;;;;;3.33;0.80;;;;;;;;;;5006377;28;88362;-51
2023/03/29 08:02:44;;;;;;;1.63;0.90;;;;;;;;;;5000073;28;87779;-49
2023/03/29 08:05:13;;;;;;;3.07;1.10;;;;;;;;;;4996480;28;88012;-49
2023/03/29 08:07:46;;;;;;;0.73;0.70;;;;;;;;;;4986262;28;87025;-49
2023/03/29 08:10:15;;;;;;;0.87;0.67;;;;;;;;;;5002997;28;88108;-47
2023/03/29 08:12:43;;;;;;;2.47;0.90;;;;;;;;;;5002534;28;87967;-49
2023/03/29 08:15:12;;;;;;;1.90;0.87;;;;;;;;;;5003429;28;87190;-49
2023/03/29 08:17:40;;;;;;;2.30;0.77;;;;;;;;;;5003422;28;86923;-49
2023/03/29 08:20:11;;;;;;;4.67;1.17;;;;;;;;;;5003309;28;89118;-49
2023/03/29 08:22:40;;;;;;;1.60;0.90;;;;;;;;;;5001646;28;87909;-49
2023/03/29 08:25:08;;;;;;;0.70;0.70;;;;;;;;;;5004694;28;86988;-49
2023/03/29 08:27:37;;;;;;;2.00;0.90;;;;;;;;;;5003681;28;87241;-47
2023/03/29 08:30:06;;;;;;;0.87;0.47;;;;;;;;;;5000781;28;90096;-49
2023/03/29 08:32:35;;;;;;;0.60;0.60;;;;;;;;;;5002578;28;89601;-48
2023/03/29 08:35:04;;;;;;;0.47;0.40;;;;;;;;;;5002699;28;87015;-50
2023/03/29 08:37:33;;;;;;;0.70;0.70;;;;;;;;;;5002332;28;88070;-48
2023/03/29 08:40:02;;;;;;;0.80;0.40;;;;;;;;;;5002530;28;88023;-48
2023/03/29 08:42:34;;;;;;;0.67;0.60;;;;;;;;;;5002216;28;87058;-48
2023/03/29 08:45:03;;;;;;;2.10;0.87;;;;;;;;;;5002549;28;87078;-48
2023/03/29 08:47:34;;;;;;;1.17;0.43;;;;;;;;;;5003520;28;86918;-48
2023/03/29 08:50:02;;;;;;;0.50;0.50;;;;;;;;;;5002577;28;89137;-48
2023/03/29 08:52:32;;;;;;;0.70;0.60;;;;;;;;;;5002740;28;88984;-48
2023/03/29 08:55:01;;;;;;;1.00;0.50;;;;;;;;;;5002382;28;87999;-48
2023/03/29 08:57:31;;;;;;;0.57;0.50;;;;;;;;;;5002468;28;87081;-48
2023/03/29 09:00:00;;;;;;;0.67;0.47;;;;;;;;;;5002377;28;88185;-47
2023/03/29 09:02:29;;;;;;;2.80;0.43;;;;;;;;;;5000546;28;89057;-48
2023/03/29 09:04:59;;;;;;;0.60;0.60;;;;;;;;;;5002409;28;86912;-48
2023/03/29 09:07:27;;;;;;;0.63;0.50;;;;;;;;;;4999620;28;86983;-48
2023/03/29 09:09:56;;;;;;;0.47;0.47;;;;;;;;;;5001843;28;89203;-47
2023/03/29 09:12:30;;;;;;;0.80;0.53;;;;;;;;;;5002449;28;87859;-47
2023/03/29 09:15:01;;;;;;;1.30;0.93;;;;;;;;;;5002907;28;87031;-47
2023/03/29 09:17:31;;;;;;;0.77;0.60;;;;;;;;;;5001179;28;87003;-48
2023/03/29 09:20:02;;;;;;;0.80;0.50;;;;;;;;;;4993119;28;88670;-47
2023/03/29 09:22:31;;;;;;;1.03;0.70;;;;;;;;;;5002130;28;88970;-48
2023/03/29 09:25:02;;;;;;;1.27;0.77;;;;;;;;;;4999337;28;88653;-47
2023/03/29 09:27:33;;;;;;;2.67;0.60;;;;;;;;;;5001992;28;87072;-48
2023/03/29 09:30:06;;;;;;;0.47;0.47;;;;;;;;;;4984112;28;88918;-50
2023/03/29 09:32:36;;;;;;;0.93;0.60;;;;;;;;;;4997917;28;88825;-50
2023/03/29 09:35:08;;;;;;;0.70;0.70;;;;;;;;;;5002063;28;87039;-50
2023/03/29 09:37:37;;;;;;;1.13;0.60;;;;;;;;;;5002498;28;86252;-50
2023/03/29 09:40:11;;;;;;;3.10;0.77;;;;;;;;;;5002483;28;89373;-50
2023/03/29 09:42:40;;;;;;;1.77;0.60;;;;;;;;;;5002775;28;87841;-50
2023/03/29 09:45:09;;;;;;;0.80;0.80;;;;;;;;;;5001686;28;88066;-50
2023/03/29 09:47:39;;;;;;;1.23;1.07;;;;;;;;;;5001904;28;87041;-50
2023/03/29 09:50:11;;;;;;;0.70;0.70;;;;;;;;;;5002158;28;89252;-50
2023/03/29 09:52:57;;;;;;;0.90;0.87;;;;;;;;;;5002386;28;87820;-50
2023/03/29 09:55:27;;;;;;;1.50;0.70;;;;;;;;;;4983145;28;87082;-50
2023/03/29 09:57:58;;;;;;;0.40;0.40;;;;;;;;;;4999808;28;87057;-50
2023/03/29 10:00:26;;;;;;;6.23;0.93;;;;;;;;;;5002109;28;86993;-50
2023/03/29 10:02:55;;;;;;;0.60;0.60;;;;;;;;;;5002617;28;87783;-50
2023/03/29 10:05:25;;;;;;;1.13;0.70;;;;;;;;;;5002361;28;87042;-50
2023/03/29 10:07:54;;;;;;;1.57;0.77;;;;;;;;;;5002354;28;86962;-50
2023/03/29 10:10:23;;;;;;;0.77;0.77;;;;;;;;;;5001351;28;89206;-50
2023/03/29 10:12:52;;;;;;;0.60;0.60;;;;;;;;;;5002002;28;88760;-50
2023/03/29 10:15:22;;;;;;;0.50;0.50;;;;;;;;;;5002460;28;87027;-50
2023/03/29 10:18:02;;;;;;;0.40;0.40;;;;;;;;;;5002133;28;86906;-50
2023/03/29 10:20:30;;;;;;;0.60;0.60;;;;;;;;;;5001775;28;89048;-50
2023/03/29 10:22:59;;;;;;;1.27;0.90;;;;;;;;;;5001402;28;87723;-50
2023/03/29 10:25:28;;;;;;;0.60;0.60;;;;;;;;;;5001946;28;86945;-50
2023/03/29 10:27:57;;;;;;;0.83;0.80;;;;;;;;;;5001797;28;86352;-50
2023/03/29 10:30:27;;;;;;;1.30;0.70;;;;;;;;;;5001176;28;89211;-50
2023/03/29 10:32:57;;;;;;;2.97;0.70;;;;;;;;;;5001725;28;87077;-50
2023/03/29 10:35:28;;;;;;;1.23;1.00;;;;;;;;;;5000935;28;87990;-50
2023/03/29 10:37:58;;;;;;;1.10;1.00;;;;;;;;;;5001489;28;87222;-50
2023/03/29 10:40:27;;;;;;;1.07;0.97;;;;;;;;;;5001821;28;87037;-49
2023/03/29 10:42:58;;;;;;;1.40;0.90;;;;;;;;;;5001461;28;87956;-50
2023/03/29 10:45:29;;;;;;;0.70;0.70;;;;;;;;;;5001536;28;87186;-49
2023/03/29 10:47:58;;;;;;;0.80;0.80;;;;;;;;;;5001195;28;87081;-50
2023/03/29 10:50:26;;;;;;;0.83;0.83;;;;;;;;;;5001717;28;88251;-50
2023/03/29 10:52:55;;;;;;;1.37;1.00;;;;;;;;;;5001957;28;88690;-50
2023/03/29 10:55:23;;;;;;;0.70;0.63;;;;;;;;;;5001364;28;87034;-50
2023/03/29 10:57:55;;;;;;;0.77;0.67;;;;;;;;;;5001734;28;87062;-50
2023/03/29 11:00:24;;;;;;;0.60;0.60;;;;;;;;;;5000164;28;89037;-50
2023/03/29 11:02:58;;;;;;;1.10;0.87;;;;;;;;;;5000871;28;88998;-50
2023/03/29 11:05:29;;;;;;;0.80;0.77;;;;;;;;;;5001613;28;87072;-50
2023/03/29 11:08:07;;;;;;;1.87;1.17;;;;;;;;;;5001633;28;87061;-50
2023/03/29 11:10:38;;;;;;;1.00;0.83;;;;;;;;;;5000666;28;88229;-50
2023/03/29 11:13:08;;;;;;;2.37;1.00;;;;;;;;;;5001267;28;87950;-50
2023/03/29 11:15:39;;;;;;;1.10;1.00;;;;;;;;;;5001512;28;87488;-50
2023/03/29 11:18:15;;;;;;;1.30;0.77;;;;;;;;;;5001459;28;86381;-50
2023/03/29 11:20:45;;;;;;;0.83;0.80;;;;;;;;;;5001348;28;87719;-50
2023/03/29 11:23:19;;;;;;;2.30;0.80;;;;;;;;;;5000805;28;87875;-50
2023/03/29 11:25:50;;;;;;;1.60;0.57;;;;;;;;;;5000900;28;87755;-50
2023/03/29 11:28:20;;;;;;;1.50;0.67;;;;;;;;;;5001267;28;87061;-50
2023/03/29 11:30:49;;;;;;;3.17;1.03;;;;;;;;;;5000341;28;89144;-50
2023/03/29 11:33:25;;;;;;;2.23;1.03;;;;;;;;;;5000425;28;87164;-50
2023/03/29 11:35:55;;;;;;;0.70;0.70;;;;;;;;;;5001308;28;86871;-50
2023/03/29 11:38:24;;;;;;;0.73;0.63;;;;;;;;;;5001108;28;86871;-49
2023/03/29 11:40:58;;;;;;;0.93;0.83;;;;;;;;;;5003609;28;88299;-50
2023/03/29 11:43:28;;;;;;;0.77;0.77;;;;;;;;;;4996618;28;88940;-49
2023/03/29 11:45:57;;;;;;;1.20;1.10;;;;;;;;;;5004384;28;87098;-50
2023/03/29 11:48:28;;;;;;;3.03;1.23;;;;;;;;;;5003843;28;86976;-50
2023/03/29 11:50:57;;;;;;;0.97;0.80;;;;;;;;;;5004197;28;90339;-50
2023/03/29 11:53:27;;;;;;;1.43;0.93;;;;;;;;;;5004206;28;89953;-50
2023/03/29 11:55:55;;;;;;;1.43;1.03;;;;;;;;;;5004398;28;87034;-50
2023/03/29 11:58:27;;;;;;;1.30;1.10;;;;;;;;;;4996132;28;86986;-50
2023/03/29 12:00:58;;;;;;;1.53;1.00;;;;;;;;;;5004004;28;88026;-50
2023/03/29 12:03:35;;;;;;;0.87;0.87;;;;;;;;;;5003678;28;88681;-50
2023/03/29 12:06:04;;;;;;;1.10;1.00;;;;;;;;;;5004367;28;86961;-49
2023/03/29 12:08:33;;;;;;;2.27;1.07;;;;;;;;;;5004632;28;86312;-50
2023/03/29 12:11:02;;;;;;;0.73;0.70;;;;;;;;;;5003892;28;88197;-50
2023/03/29 12:13:32;;;;;;;1.47;0.80;;;;;;;;;;5004007;28;87635;-50
2023/03/29 12:16:00;;;;;;;1.90;0.90;;;;;;;;;;5003576;28;87979;-50
2023/03/29 12:18:30;;;;;;;1.77;0.93;;;;;;;;;;5003933;28;86877;-50
2023/03/29 12:21:00;;;;;;;3.90;1.13;;;;;;;;;;5003518;28;87919;-50
2023/03/29 12:23:29;;;;;;;1.03;0.97;;;;;;;;;;5003142;28;88871;-50
2023/03/29 12:25:58;;;;;;;0.80;0.73;;;;;;;;;;5003627;28;87111;-50
2023/03/29 12:28:32;;;;;;;1.00;0.67;;;;;;;;;;5004058;28;87036;-50
2023/03/29 12:31:02;;;;;;;1.43;1.13;;;;;;;;;;5003460;28;89360;-50
2023/03/29 12:33:46;;;;;;;1.17;0.67;;;;;;;;;;5003884;28;87666;-50
2023/03/29 12:36:17;;;;;;;0.60;0.60;;;;;;;;;;5003591;28;87048;-50
2023/03/29 12:38:46;;;;;;;1.77;0.80;;;;;;;;;;5003054;28;87049;-50
2023/03/29 12:41:17;;;;;;;1.33;0.73;;;;;;;;;;5002701;28;89267;-50
2023/03/29 12:43:46;;;;;;;0.97;0.80;;;;;;;;;;5003538;28;89704;-50
2023/03/29 12:46:16;;;;;;;0.67;0.60;;;;;;;;;;5003517;28;87901;-50
2023/03/29 12:48:45;;;;;;;1.00;0.60;;;;;;;;;;5002446;28;87017;-50
2023/03/29 12:51:14;;;;;;;1.77;0.80;;;;;;;;;;5002686;28;89277;-49
2023/03/29 12:53:44;;;;;;;0.60;0.60;;;;;;;;;;5002910;28;88835;-50
2023/03/29 12:56:14;;;;;;;0.90;0.70;;;;;;;;;;5003259;28;87013;-50
2023/03/29 12:58:56;;;;;;;0.83;0.63;;;;;;;;;;5003792;28;86286;-47
2023/03/29 13:01:26;;;;;;;1.10;0.70;;;;;;;;;;5002670;28;89249;-47
2023/03/29 13:03:57;;;;;;;1.43;1.10;;;;;;;;;;5002974;28;87658;-47
2023/03/29 13:06:30;;;;;;;0.80;0.80;;;;;;;;;;5002865;28;88049;-50
2023/03/29 13:09:00;;;;;;;1.27;0.87;;;;;;;;;;5003037;28;87357;-47
2023/03/29 13:11:29;;;;;;;0.87;0.87;;;;;;;;;;5002706;28;88140;-47
2023/03/29 13:13:57;;;;;;;1.20;0.83;;;;;;;;;;5002938;28;88299;-50
2023/03/29 13:16:29;;;;;;;0.70;0.70;;;;;;;;;;5003419;28;87041;-50
2023/03/29 13:19:01;;;;;;;1.97;0.97;;;;;;;;;;5003132;28;86888;-48
2023/03/29 13:21:32;;;;;;;2.07;1.00;;;;;;;;;;5003011;28;88192;-48
2023/03/29 13:24:04;;;;;;;0.50;0.50;;;;;;;;;;5002913;28;88058;-48
2023/03/29 13:26:42;;;;;;;1.10;1.00;;;;;;;;;;5002351;28;87064;-48
2023/03/29 13:29:21;;;;;;;0.63;0.63;;;;;;;;;;5002278;28;87240;-48
2023/03/29 13:31:51;;;;;;;0.70;0.70;;;;;;;;;;5001015;28;89015;-48
2023/03/29 13:34:23;;;;;;;0.83;0.83;;;;;;;;;;5001640;28;88758;-48
2023/03/29 13:36:55;;;;;;;1.77;0.80;;;;;;;;;;5002952;28;86888;-48
2023/03/29 13:39:26;;;;;;;1.00;0.90;;;;;;;;;;5002302;28;87340;-48
2023/03/29 13:41:54;;;;;;;0.60;0.60;;;;;;;;;;5002014;28;88064;-48
2023/03/29 13:44:26;;;;;;;0.90;0.80;;;;;;;;;;5002024;28;89079;-48
2023/03/29 13:47:05;;;;;;;0.87;0.70;;;;;;;;;;5002255;28;86995;-48
2023/03/29 13:49:34;;;;;;;1.77;0.87;;;;;;;;;;5002855;28;86276;-48
2023/03/29 13:52:07;;;;;;;0.83;0.70;;;;;;;;;;5001969;28;88066;-48
2023/03/29 13:54:38;;;;;;;2.50;1.20;;;;;;;;;;5002159;28;88341;-48
2023/03/29 13:57:09;;;;;;;1.30;0.73;;;;;;;;;;5001892;28;88005;-48
2023/03/29 13:59:39;;;;;;;1.80;0.90;;;;;;;;;;5002054;28;87002;-48
2023/03/29 14:02:07;;;;;;;1.10;1.00;;;;;;;;;;5000653;28;88045;-50
2023/03/29 14:04:36;;;;;;;0.93;0.93;;;;;;;;;;5001357;28;88857;-48
2023/03/29 14:07:05;;;;;;;1.97;1.20;;;;;;;;;;5002736;28;87027;-48
2023/03/29 14:09:33;;;;;;;1.67;0.80;;;;;;;;;;5002244;28;86998;-48
2023/03/29 14:12:03;;;;;;;1.60;0.90;;;;;;;;;;5001764;28;89144;-50
2023/03/29 14:14:31;;;;;;;1.70;0.80;;;;;;;;;;5002386;28;86695;-50
2023/03/29 14:17:00;;;;;;;1.17;1.07;;;;;;;;;;5002239;28;86874;-48
2023/03/29 14:19:30;;;;;;;1.50;0.77;;;;;;;;;;5002342;28;86914;-48
2023/03/29 14:22:00;;;;;;;3.53;0.90;;;;;;;;;;5001366;28;89104;-50
2023/03/29 14:24:29;;;;;;;3.23;1.03;;;;;;;;;;5001707;28;89568;-48
2023/03/29 14:26:57;;;;;;;1.00;0.80;;;;;;;;;;5001541;28;86947;-50
2023/03/29 14:29:32;;;;;;;1.03;0.93;;;;;;;;;;5001427;28;87129;-48
2023/03/29 14:32:08;;;;;;;1.27;1.10;;;;;;;;;;5001160;28;89229;-48
2023/03/29 14:34:37;;;;;;;1.37;1.00;;;;;;;;;;5001356;28;87754;-48
2023/03/29 14:37:07;;;;;;;1.97;1.27;;;;;;;;;;5002212;28;87192;-48
2023/03/29 14:39:36;;;;;;;1.07;0.70;;;;;;;;;;5001828;28;86381;-48
2023/03/29 14:42:04;;;;;;;1.23;1.13;;;;;;;;;;5000868;28;88147;-48
2023/03/29 14:44:34;;;;;;;1.53;0.80;;;;;;;;;;5001728;28;88622;-48
2023/03/29 14:47:02;;;;;;;1.37;1.00;;;;;;;;;;5001373;28;87912;-48
2023/03/29 14:49:31;;;;;;;0.83;0.83;;;;;;;;;;5001248;28;87020;-48
2023/03/29 14:51:59;;;;;;;1.60;0.87;;;;;;;;;;5001244;28;88207;-48
2023/03/29 14:54:28;;;;;;;1.53;0.80;;;;;;;;;;5001382;28;88816;-48
2023/03/29 14:56:56;;;;;;;1.67;1.20;;;;;;;;;;5001411;28;87020;-48
2023/03/29 14:59:26;;;;;;;1.53;0.90;;;;;;;;;;5001438;28;88099;-48